Time;durP1;ratioP1;P1;durP2;ratioP2;P2;SDS_P1;SDS_P2;PMS_P1;PMS_P2;Temp;Humidity;BMP_temperature;BMP_pressure;BME280_temperature;BME280_humidity;BME280_pressure;Samples;Min_cycle;Max_cycle;Signal;HPM_P1;HPM_P2
2022/11/05 00:11:00;;;;;;;109.67;44.58;;;;;;;2.92;100.00;100319.63;1768043;81;21032;-65
2022/11/05 00:19:05;;;;;;;93.45;33.30;;;;;;;2.92;100.00;100315.72;1767861;81;21116;-64
2022/11/05 00:27:08;;;;;;;92.35;40.10;;;;;;;3.14;100.00;100319.98;1768531;81;21036;-64
2022/11/05 00:29:36;;;;;;;104.50;38.98;;;;;;;3.15;100.00;100318.25;1767983;81;21877;-64
2022/11/05 00:32:03;;;;;;;129.20;41.60;;;;;;;3.20;100.00;100313.02;1768349;80;21017;-65
2022/11/05 00:34:31;;;;;;;83.10;38.00;;;;;;;3.26;100.00;100316.91;1768161;81;22228;-64
2022/11/05 00:36:58;;;;;;;93.37;37.38;;;;;;;3.30;100.00;100314.28;1768530;80;21493;-64
2022/11/05 00:39:25;;;;;;;90.42;40.63;;;;;;;3.42;100.00;100318.56;1768267;81;21079;-65
2022/11/05 00:50:09;;;;;;;77.60;39.40;;;;;;;3.60;100.00;100316.76;1799604;79;21076;-65
2022/11/05 00:52:55;;;;;;;86.28;38.55;;;;;;;3.56;100.00;100317.20;1799668;79;21606;-65
2022/11/05 00:55:38;;;;;;;72.58;35.52;;;;;;;3.56;100.00;100317.20;1799685;79;21103;-64
2022/11/05 00:58:10;;;;;;;72.27;37.78;;;;;;;3.64;100.00;100314.58;1799520;79;21021;-64
2022/11/05 01:00:41;;;;;;;68.60;35.50;;;;;;;3.66;100.00;100315.40;1799455;79;21091;-65
2022/11/05 01:03:11;;;;;;;81.02;41.58;;;;;;;3.70;100.00;100317.98;1799779;79;21032;-64
2022/11/05 01:05:42;;;;;;;75.25;39.80;;;;;;;3.72;100.00;100324.05;1799581;79;21071;-64
2022/11/05 01:08:10;;;;;;;86.37;40.40;;;;;;;3.74;100.00;100322.30;1799532;79;21117;-66
2022/11/05 01:10:45;;;;;;;75.95;37.33;;;;;;;3.81;100.00;100318.37;1799563;79;21031;-64
2022/11/05 01:13:12;;;;;;;74.92;39.40;;;;;;;3.75;100.00;100323.16;1799606;79;21060;-66
2022/11/05 01:15:41;;;;;;;68.55;35.85;;;;;;;3.85;100.00;100317.48;1799421;79;21021;-65
2022/11/05 01:18:07;;;;;;;76.70;37.40;;;;;;;4.01;100.00;100318.24;1805660;79;21087;-64
2022/11/05 01:20:35;;;;;;;67.90;34.03;;;;;;;4.08;100.00;100317.31;1810298;79;21138;-65
2022/11/05 01:23:01;;;;;;;65.10;32.58;;;;;;;4.17;100.00;100314.64;1810344;79;20973;-65
2022/11/05 01:25:28;;;;;;;62.40;31.87;;;;;;;4.34;100.00;100323.62;1810395;79;21091;-64
2022/11/05 01:27:55;;;;;;;60.83;31.07;;;;;;;4.26;100.00;100318.48;1810287;79;21067;-65
2022/11/05 01:30:21;;;;;;;61.83;30.40;;;;;;;4.23;100.00;100323.69;1810625;79;21051;-64
2022/11/05 01:32:47;;;;;;;55.17;30.05;;;;;;;4.29;100.00;100318.44;1810550;79;21242;-65
2022/11/05 01:35:16;;;;;;;57.50;30.60;;;;;;;4.34;100.00;100321.87;1810514;79;21016;-65
2022/11/05 01:37:42;;;;;;;56.68;30.43;;;;;;;4.30;100.00;100318.88;1810525;79;21540;-65
2022/11/05 01:40:16;;;;;;;48.58;28.05;;;;;;;4.25;100.00;100319.34;1810134;79;21388;-65
2022/11/05 01:42:43;;;;;;;57.10;30.12;;;;;;;4.25;100.00;100320.64;1810652;79;21012;-65
2022/11/05 01:45:25;;;;;;;59.85;30.77;;;;;;;4.14;100.00;100322.05;1790399;79;21084;-65
2022/11/05 01:48:06;;;;;;;60.20;30.77;;;;;;;4.22;100.00;100324.58;1778032;80;21048;-64
2022/11/05 01:51:06;;;;;;;53.58;30.57;;;;;;;4.23;100.00;100326.30;1778561;80;21525;-64
2022/11/05 01:53:40;;;;;;;59.80;29.80;;;;;;;4.17;100.00;100319.41;1778314;80;21037;-65
2022/11/05 01:56:15;;;;;;;60.78;29.45;;;;;;;4.15;100.00;100325.52;1778573;80;21061;-64
2022/11/05 01:58:56;;;;;;;60.88;29.87;;;;;;;4.17;100.00;100319.85;1778666;80;21551;-65
2022/11/05 02:01:23;;;;;;;58.48;29.87;;;;;;;4.03;100.00;100320.41;1796427;79;21027;-65
2022/11/05 02:03:52;;;;;;;53.68;27.65;;;;;;;4.06;100.00;100321.67;1810706;79;21024;-65
2022/11/05 02:06:19;;;;;;;54.03;27.00;;;;;;;3.99;100.00;100319.55;1810795;79;21512;-64
2022/11/05 02:09:05;;;;;;;54.27;28.00;;;;;;;3.94;100.00;100331.30;1785629;79;21603;-65
2022/11/05 02:11:32;;;;;;;48.87;25.92;;;;;;;4.03;100.00;100330.83;1810939;79;21075;-64
2022/11/05 02:13:58;;;;;;;44.15;23.67;;;;;;;3.98;100.00;100347.35;1810284;79;21060;-66
2022/11/05 02:16:59;;;;;;;48.05;25.12;;;;;;;3.84;100.00;100346.55;1810499;79;21512;-65
2022/11/05 02:19:47;;;;;;;46.95;24.82;;;;;;;3.71;100.00;100340.56;1785049;79;21576;-65
2022/11/05 02:22:38;;;;;;;42.30;22.22;;;;;;;3.76;100.00;100340.53;1807033;79;21079;-66
2022/11/05 02:25:28;;;;;;;38.65;20.72;;;;;;;3.64;100.00;100347.12;1806632;79;21259;-64
2022/11/05 02:28:15;;;;;;;41.13;22.75;;;;;;;3.72;100.00;100350.54;1806659;79;21067;-66
2022/11/05 02:31:18;;;;;;;43.98;23.60;;;;;;;3.76;100.00;100354.86;1775935;79;21019;-66
2022/11/05 02:34:20;;;;;;;43.52;20.88;;;;;;;3.77;100.00;100356.58;1806931;79;21067;-64
2022/11/05 02:37:10;;;;;;;40.75;21.52;;;;;;;3.76;100.00;100365.28;1806609;79;21556;-64
2022/11/05 02:39:47;;;;;;;40.43;22.07;;;;;;;3.76;100.00;100365.28;1807149;79;21080;-65
2022/11/05 02:42:45;;;;;;;44.63;23.50;;;;;;;3.71;100.00;100362.70;1807163;79;21040;-65
2022/11/05 02:45:46;;;;;;;42.93;22.65;;;;;;;3.86;100.00;100363.04;1806914;79;20993;-64
2022/11/05 02:48:27;;;;;;;40.50;22.60;;;;;;;3.74;100.00;100355.30;1807165;79;21477;-64
2022/11/05 02:51:17;;;;;;;43.85;22.77;;;;;;;3.85;100.00;100347.00;1806979;79;21099;-65
2022/11/05 02:53:52;;;;;;;43.10;22.98;;;;;;;3.93;100.00;100353.04;1807179;79;21014;-64
2022/11/05 02:56:26;;;;;;;54.42;24.77;;;;;;;3.96;100.00;100355.61;1806535;79;21029;-65
2022/11/05 02:58:52;;;;;;;46.00;23.02;;;;;;;3.99;100.00;100350.37;1807362;79;21540;-64
2022/11/05 03:01:19;;;;;;;52.83;24.10;;;;;;;4.15;100.00;100346.37;1806818;79;21075;-64
2022/11/05 03:03:59;;;;;;;54.80;23.90;;;;;;;4.17;100.00;100344.17;1807139;79;21021;-65
2022/11/05 03:07:00;;;;;;;53.58;26.17;;;;;;;4.19;100.00;100341.12;1807104;79;21105;-64
2022/11/05 03:09:47;;;;;;;82.72;25.25;;;;;;;4.24;100.00;100335.87;1807070;79;21043;-65
2022/11/05 03:12:57;;;;;;;89.10;29.05;;;;;;;4.52;100.00;100333.88;1807123;79;21025;-65
2022/11/05 03:15:50;;;;;;;68.15;24.10;;;;;;;4.69;100.00;100330.25;1806492;79;20997;-66
2022/11/05 03:18:41;;;;;;;67.75;24.60;;;;;;;4.73;100.00;100329.34;1808101;79;20992;-65
2022/11/05 03:21:28;;;;;;;63.87;25.93;;;;;;;4.94;100.00;100333.03;1810812;79;21232;-65
2022/11/05 03:23:59;;;;;;;51.85;25.68;;;;;;;5.10;100.00;100332.42;1810262;79;21224;-65
2022/11/05 03:26:46;;;;;;;45.43;25.12;;;;;;;5.11;100.00;100330.25;1810258;79;21020;-66
2022/11/05 03:29:18;;;;;;;43.05;23.12;;;;;;;5.23;100.00;100332.71;1810085;79;21431;-65
2022/11/05 03:31:47;;;;;;;46.28;24.75;;;;;;;5.36;100.00;100337.77;1810221;79;21505;-64
2022/11/05 03:34:14;;;;;;;42.05;23.67;;;;;;;5.54;100.00;100347.98;1810643;79;21060;-65
2022/11/05 03:36:45;;;;;;;42.85;23.15;;;;;;;5.54;100.00;100349.30;1810261;79;22145;-66
2022/11/05 03:39:34;;;;;;;41.50;22.65;;;;;;;5.60;100.00;100354.45;1810878;79;21036;-66
2022/11/05 03:42:01;;;;;;;43.45;24.02;;;;;;;5.78;100.00;100352.48;1810590;79;21095;-64
2022/11/05 03:44:31;;;;;;;44.38;24.12;;;;;;;5.80;100.00;100349.41;1810720;79;21035;-64
2022/11/05 03:47:02;;;;;;;43.95;23.98;;;;;;;5.68;100.00;100343.47;1810676;79;21153;-65
2022/11/05 03:49:35;;;;;;;37.73;22.20;;;;;;;5.63;100.00;100351.78;1810308;79;21223;-64
2022/11/05 03:52:17;;;;;;;38.38;21.70;;;;;;;5.64;100.00;100354.84;1810361;79;21048;-64
2022/11/05 03:54:45;;;;;;;37.23;21.93;;;;;;;5.74;100.00;100354.72;1810621;79;21056;-65
2022/11/05 03:57:28;;;;;;;42.90;23.57;;;;;;;5.77;100.00;100359.44;1810442;79;21033;-64
2022/11/05 03:59:57;;;;;;;38.63;22.48;;;;;;;5.81;100.00;100359.83;1810230;78;21129;-66
2022/11/05 04:02:24;;;;;;;44.23;22.82;;;;;;;5.92;100.00;100357.52;1810455;79;20996;-65
2022/11/05 04:04:52;;;;;;;41.15;22.55;;;;;;;6.09;100.00;100353.78;1785390;79;21036;-65
2022/11/05 04:18:04;;;;;;;40.50;23.62;;;;;;;6.16;100.00;100344.09;1779422;79;21020;-64
2022/11/05 04:26:02;;;;;;;37.53;20.65;;;;;;;6.28;100.00;100353.50;1810622;79;21563;-64
2022/11/05 04:30:17;;;;;;;39.73;22.40;;;;;;;6.34;100.00;100353.86;1810542;79;20981;-65
2022/11/05 04:30:58;;;;;;;40.60;23.57;;;;;;;6.40;100.00;100350.70;1807331;79;21049;-65
2022/11/05 04:33:25;;;;;;;43.20;24.98;;;;;;;6.61;100.00;100359.09;1810379;79;21074;-64
2022/11/05 04:35:51;;;;;;;43.55;24.35;;;;;;;6.43;100.00;100365.03;1810572;79;21091;-64
2022/11/05 04:38:19;;;;;;;44.93;24.82;;;;;;;6.38;100.00;100368.17;1810550;79;21509;-64
2022/11/05 04:40:46;;;;;;;50.33;26.80;;;;;;;6.41;100.00;100373.34;1810593;79;20989;-65
2022/11/05 04:43:17;;;;;;;44.58;23.80;;;;;;;6.45;100.00;100379.41;1810586;79;21044;-64
2022/11/05 04:45:44;;;;;;;48.73;24.18;;;;;;;6.53;100.00;100379.27;1783645;79;21529;-65
2022/11/05 04:48:10;;;;;;;50.10;26.00;;;;;;;6.56;100.00;100389.26;1778374;80;21667;-65
2022/11/05 04:50:38;;;;;;;44.13;25.15;;;;;;;6.51;100.00;100395.88;1778511;80;21233;-65
2022/11/05 04:53:05;;;;;;;48.48;25.43;;;;;;;6.58;100.00;100400.98;1778156;80;21032;-64
2022/11/05 04:55:32;;;;;;;45.75;23.85;;;;;;;6.43;100.00;100396.87;1778225;80;21048;-66
2022/11/05 04:57:58;;;;;;;49.15;25.12;;;;;;;6.56;100.00;100394.94;1778347;80;21049;-65
2022/11/05 05:00:25;;;;;;;48.50;24.92;;;;;;;6.52;100.00;100394.11;1778172;80;21021;-66
2022/11/05 05:02:51;;;;;;;43.60;24.00;;;;;;;6.63;100.00;100393.95;1778550;80;21130;-65
2022/11/05 05:05:18;;;;;;;44.40;23.95;;;;;;;6.65;100.00;100395.65;1778520;80;21549;-65
2022/11/05 05:07:45;;;;;;;41.88;23.77;;;;;;;6.71;100.00;100397.28;1778499;80;21033;-64
2022/11/05 05:10:12;;;;;;;49.10;25.60;;;;;;;6.80;100.00;100403.67;1778831;80;21093;-66
2022/11/05 05:12:40;;;;;;;43.65;23.73;;;;;;;6.87;100.00;100418.83;1778714;80;21068;-65
2022/11/05 05:15:08;;;;;;;41.83;23.25;;;;;;;6.78;100.00;100414.61;1778571;80;21875;-65
2022/11/05 05:17:34;;;;;;;44.95;24.77;;;;;;;6.82;100.00;100424.14;1778608;80;21088;-65
2022/11/05 05:22:52;;;;;;;43.35;23.35;;;;;;;6.69;100.00;100431.36;1775287;80;21042;-65
2022/11/05 05:25:19;;;;;;;49.00;25.15;;;;;;;6.77;100.00;100440.38;1775610;80;21661;-64
2022/11/05 05:27:46;;;;;;;49.33;24.85;;;;;;;6.85;100.00;100438.94;1775430;80;21137;-65
2022/11/05 05:30:13;;;;;;;51.55;24.75;;;;;;;6.87;100.00;100444.56;1775081;80;20994;-65
2022/11/05 05:32:40;;;;;;;48.17;24.25;;;;;;;6.87;100.00;100451.11;1775390;80;21447;-65
2022/11/05 05:35:07;;;;;;;48.00;24.63;;;;;;;6.85;100.00;100451.58;1775163;80;21042;-64
2022/11/05 05:37:34;;;;;;;46.88;22.62;;;;;;;6.85;100.00;100454.19;1775283;80;21009;-64
2022/11/05 05:40:00;;;;;;;46.90;24.00;;;;;;;6.88;100.00;100458.09;1775389;80;21218;-66
2022/11/05 05:42:26;;;;;;;50.63;24.90;;;;;;;6.99;100.00;100460.95;1775789;80;21006;-65
2022/11/05 05:44:53;;;;;;;48.60;25.23;;;;;;;7.03;100.00;100458.71;1790359;79;21073;-66
2022/11/05 05:47:19;;;;;;;40.75;22.77;;;;;;;7.07;100.00;100457.77;1776420;79;21085;-65
2022/11/05 05:49:46;;;;;;;41.05;23.62;;;;;;;7.24;100.00;100465.33;1734445;82;21065;-65
2022/11/05 05:52:12;;;;;;;38.28;22.50;;;;;;;7.27;100.00;100464.84;1734232;82;21244;-65
2022/11/05 05:54:39;;;;;;;42.62;23.30;;;;;;;7.23;100.00;100469.70;1805294;79;21085;-65
2022/11/05 05:57:06;;;;;;;41.68;22.73;;;;;;;7.23;100.00;100476.25;1805465;79;21014;-65
2022/11/05 05:59:32;;;;;;;45.00;24.85;;;;;;;7.24;100.00;100478.42;1805366;79;21072;-65
2022/11/05 06:01:59;;;;;;;48.20;26.33;;;;;;;7.31;100.00;100473.03;1805343;79;21084;-65
2022/11/05 06:04:26;;;;;;;46.73;24.35;;;;;;;7.16;100.00;100485.11;1805415;79;21949;-65
2022/11/05 06:06:53;;;;;;;41.92;24.35;;;;;;;7.26;100.00;100483.19;1805183;79;21085;-65
2022/11/05 06:09:19;;;;;;;49.38;25.40;;;;;;;7.07;100.00;100486.13;1734376;82;21128;-64
2022/11/05 06:11:46;;;;;;;45.95;25.27;;;;;;;7.16;100.00;100491.66;1734592;82;21098;-64
2022/11/05 06:14:12;;;;;;;55.40;27.00;;;;;;;7.14;100.00;100488.20;1805596;79;21041;-66
2022/11/05 10:37:31;;;;;;;40.48;21.55;;;;;;;5.83;100.00;100661.70;1837023;76;28099;-67
2022/11/05 10:39:59;;;;;;;37.70;21.10;;;;;;;5.88;100.00;100667.30;1807147;79;20955;-65
2022/11/05 10:43:04;;;;;;;38.28;21.07;;;;;;;5.87;100.00;100659.49;1807064;79;21777;-67
2022/11/05 10:46:03;;;;;;;36.03;20.30;;;;;;;5.85;100.00;100639.03;1785667;79;20989;-66
2022/11/05 10:48:44;;;;;;;40.20;20.92;;;;;;;5.81;100.00;100643.41;1802793;79;21015;-66
2022/11/05 10:51:13;;;;;;;36.13;19.67;;;;;;;5.92;100.00;100636.78;1804232;79;20980;-65
2022/11/05 10:53:44;;;;;;;38.50;20.50;;;;;;;5.87;100.00;100638.58;1803962;79;21051;-66
2022/11/05 10:56:36;;;;;;;33.55;19.17;;;;;;;5.92;100.00;100642.02;1804392;79;21150;-67
2022/11/05 10:59:05;;;;;;;40.78;21.80;;;;;;;5.93;100.00;100646.79;1803918;79;21020;-66
2022/11/05 11:01:33;;;;;;;36.03;19.62;;;;;;;6.04;100.00;100637.98;1804340;79;21099;-66
2022/11/05 11:04:15;;;;;;;35.25;20.08;;;;;;;6.13;100.00;100647.94;1803915;79;21477;-65
2022/11/05 11:06:52;;;;;;;32.23;18.67;;;;;;;6.03;100.00;100649.34;1804238;79;21083;-67
2022/11/05 11:09:25;;;;;;;34.58;18.07;;;;;;;6.11;100.00;100649.70;1804026;79;21113;-66
2022/11/05 11:12:12;;;;;;;32.45;19.05;;;;;;;6.07;100.00;100654.97;1804172;79;21000;-66
2022/11/05 11:14:39;;;;;;;29.45;17.23;;;;;;;6.08;100.00;100664.53;1769918;79;21043;-66
2022/11/05 11:17:25;;;;;;;38.48;20.95;;;;;;;6.03;100.00;100665.03;1804146;79;21024;-67
2022/11/05 11:20:28;;;;;;;38.75;20.68;;;;;;;6.04;100.00;100667.20;1806558;79;21042;-67
2022/11/05 11:23:03;;;;;;;38.02;19.12;;;;;;;6.02;100.00;100668.51;1806955;79;21191;-67
2022/11/05 11:25:35;;;;;;;37.28;18.90;;;;;;;6.02;100.00;100680.72;1805564;79;21016;-67
2022/11/05 11:28:04;;;;;;;43.85;21.33;;;;;;;5.95;100.00;100673.38;1832063;78;21099;-67
2022/11/05 11:30:33;;;;;;;42.98;21.10;;;;;;;5.87;100.00;100671.25;1835018;78;21529;-66
2022/11/05 11:33:06;;;;;;;42.13;21.77;;;;;;;5.81;100.00;100671.30;1834739;78;21014;-67
2022/11/05 11:35:35;;;;;;;39.10;20.40;;;;;;;5.84;100.00;100679.11;1833783;78;21258;-67
2022/11/05 11:38:02;;;;;;;44.25;22.60;;;;;;;5.84;100.00;100681.72;1835238;78;21026;-67
2022/11/05 11:40:33;;;;;;;40.12;21.77;;;;;;;5.83;100.00;100678.24;1835328;78;21030;-67
2022/11/05 11:43:03;;;;;;;43.20;21.73;;;;;;;5.96;100.00;100677.73;1835183;78;21022;-68
2022/11/05 11:45:46;;;;;;;44.85;21.93;;;;;;;5.93;100.00;100676.41;1834700;78;21046;-67
2022/11/05 11:48:19;;;;;;;47.67;23.40;;;;;;;5.93;100.00;100676.41;1833913;78;21219;-67
2022/11/05 11:50:46;;;;;;;44.05;22.32;;;;;;;6.00;100.00;100679.42;1834035;78;21035;-66
2022/11/05 11:53:24;;;;;;;41.37;22.22;;;;;;;6.04;100.00;100679.82;1834249;78;21053;-66
2022/11/05 11:56:14;;;;;;;48.52;22.50;;;;;;;6.04;100.00;100682.44;1833847;78;21073;-67
2022/11/05 11:58:48;;;;;;;39.85;20.80;;;;;;;6.10;100.00;100684.14;1834179;78;22302;-67
2022/11/05 12:01:54;;;;;;;39.20;19.25;;;;;;;6.06;100.00;100679.38;1833911;78;21797;-67
2022/11/05 12:05:03;;;;;;;42.17;21.97;;;;;;;6.11;100.00;100673.23;1833966;78;21053;-67
2022/11/05 12:07:44;;;;;;;38.30;18.67;;;;;;;6.09;100.00;100682.39;1834089;78;21019;-67
2022/11/05 12:10:41;;;;;;;42.48;21.15;;;;;;;6.07;100.00;100673.69;1834258;78;21042;-67
2022/11/05 12:13:31;;;;;;;40.55;22.17;;;;;;;6.05;100.00;100667.19;1834356;78;21053;-66
2022/11/05 12:16:19;;;;;;;42.60;21.70;;;;;;;6.18;100.00;100657.91;1833916;78;21158;-67
2022/11/05 12:19:33;;;;;;;44.80;22.22;;;;;;;6.12;100.00;100673.64;1834136;78;20983;-67
2022/11/05 12:22:27;;;;;;;41.13;21.23;;;;;;;6.22;100.00;100670.08;1834446;78;21053;-66
2022/11/05 12:25:21;;;;;;;39.13;20.08;;;;;;;6.24;100.00;100671.78;1834107;78;21073;-66
2022/11/05 12:28:10;;;;;;;43.35;22.13;;;;;;;6.34;100.00;100680.39;1834153;78;21022;-66
2022/11/05 12:31:03;;;;;;;41.77;21.10;;;;;;;6.36;100.00;100670.78;1834105;78;21222;-67
2022/11/05 12:33:58;;;;;;;54.60;23.60;;;;;;;6.30;100.00;100673.45;1834021;78;21541;-67
2022/11/05 12:37:02;;;;;;;46.53;23.40;;;;;;;6.29;100.00;100671.73;1832684;77;21042;-65
2022/11/05 12:39:35;;;;;;;49.42;25.85;;;;;;;6.27;100.00;100672.19;1827876;78;21022;-67
2022/11/05 12:42:10;;;;;;;46.60;25.70;;;;;;;6.26;100.00;100671.78;1821147;78;21034;-67
2022/11/05 12:45:23;;;;;;;61.80;30.95;;;;;;;6.33;100.00;100676.48;1788021;79;21833;-68
2022/11/05 12:48:19;;;;;;;45.05;22.07;;;;;;;6.39;100.00;100668.13;1787942;79;21478;-67
2022/11/05 12:51:01;;;;;;;45.35;22.07;;;;;;;6.42;100.00;100681.19;1788429;79;21525;-67
2022/11/05 12:53:47;;;;;;;44.83;22.25;;;;;;;6.42;100.00;100678.57;1784886;79;21061;-68
2022/11/05 12:56:31;;;;;;;44.85;21.73;;;;;;;6.49;100.00;100686.78;1788996;79;21434;-67
2022/11/05 12:59:15;;;;;;;45.98;24.65;;;;;;;6.55;100.00;100683.66;1785940;79;21447;-68
2022/11/05 13:01:45;;;;;;;48.08;27.07;;;;;;;6.41;100.00;100680.75;1788796;80;21632;-67
2022/11/05 13:04:26;;;;;;;51.50;23.18;;;;;;;6.39;100.00;100681.20;1788787;80;21044;-66
2022/11/05 13:06:54;;;;;;;48.40;23.62;;;;;;;6.37;100.00;100693.43;1788453;80;21022;-66
2022/11/05 13:09:26;;;;;;;45.23;24.00;;;;;;;6.47;100.00;100694.22;1788617;80;21031;-65
2022/11/05 13:12:00;;;;;;;46.45;22.07;;;;;;;6.47;100.00;100700.31;1788729;80;21141;-66
2022/11/05 13:14:52;;;;;;;39.60;21.20;;;;;;;6.49;100.00;100699.00;1788736;80;21042;-66
2022/11/05 13:17:23;;;;;;;43.60;19.52;;;;;;;6.44;100.00;100702.08;1788456;80;21021;-66
2022/11/05 13:20:04;;;;;;;44.07;20.23;;;;;;;6.45;100.00;100712.55;1788908;79;21061;-67
2022/11/05 13:22:37;;;;;;;43.52;20.95;;;;;;;6.42;100.00;100710.39;1788212;80;21563;-68
2022/11/05 13:25:30;;;;;;;62.43;30.48;;;;;;;6.37;100.00;100714.36;1788499;80;21110;-66
2022/11/05 13:28:21;;;;;;;49.40;23.38;;;;;;;6.53;100.00;100716.38;1788188;80;21058;-65
2022/11/05 13:30:51;;;;;;;49.55;23.55;;;;;;;6.48;100.00;100726.89;1788445;80;28747;-66
2022/11/05 13:33:33;;;;;;;48.93;24.87;;;;;;;6.33;100.00;100724.45;1794618;79;21105;-66
2022/11/05 13:39:16;;;;;;;48.15;21.73;;;;;;;6.34;100.00;100734.02;1788429;79;21087;-66
2022/11/05 13:41:55;;;;;;;50.92;24.18;;;;;;;6.36;100.00;100753.19;1788560;80;21058;-66
2022/11/05 13:45:04;;;;;;;48.63;22.50;;;;;;;6.50;100.00;100768.30;1797054;78;21041;-67
2022/11/05 13:47:37;;;;;;;37.60;19.27;;;;;;;6.42;100.00;100759.68;1820638;78;21085;-66
2022/11/05 13:50:50;;;;;;;44.45;23.22;;;;;;;6.35;100.00;100763.24;1821122;78;21097;-67
2022/11/05 13:53:55;;;;;;;42.17;22.30;;;;;;;6.33;100.00;100771.55;1820605;78;21890;-66
2022/11/05 13:57:04;;;;;;;48.33;27.87;;;;;;;6.39;100.00;100773.22;1820678;78;21059;-66
2022/11/05 18:36:30;;;;;;;82.53;35.33;;;;;;;3.21;100.00;100921.23;1870755;74;22779;-91
2022/11/05 18:39:00;;;;;;;87.95;37.60;;;;;;;3.67;100.00;100918.41;1826792;78;20917;-90
2022/11/05 18:41:30;;;;;;;77.67;37.73;;;;;;;3.93;100.00;100921.13;1826586;77;21174;-90
2022/11/05 18:44:00;;;;;;;80.07;34.60;;;;;;;4.04;100.00;100918.96;1826734;78;21024;-91
2022/11/05 18:46:28;;;;;;;59.18;29.32;;;;;;;4.11;100.00;100923.31;1827541;78;21607;-89
2022/11/05 18:48:56;;;;;;;73.12;32.60;;;;;;;4.08;100.00;100923.32;1826575;76;20881;-91
2022/11/05 18:51:23;;;;;;;62.40;30.57;;;;;;;4.16;100.00;100918.98;1762630;76;20954;-90
2022/11/05 18:53:54;;;;;;;60.35;27.60;;;;;;;4.32;100.00;100927.25;1827976;76;21102;-91
2022/11/05 18:56:20;;;;;;;65.97;32.47;;;;;;;4.39;100.00;100924.22;1827300;76;20906;-89
2022/11/05 18:58:49;;;;;;;70.30;33.18;;;;;;;4.44;100.00;100926.83;1826039;76;20929;-91
2022/11/05 19:01:22;;;;;;;58.50;28.07;;;;;;;4.52;100.00;100930.33;1824589;77;21600;-90
2022/11/05 19:03:56;;;;;;;56.23;28.00;;;;;;;4.60;100.00;100932.49;1824279;78;21105;-92
2022/11/05 19:06:25;;;;;;;52.25;24.25;;;;;;;4.53;100.00;100936.87;1824993;78;21117;-92
2022/11/05 19:08:53;;;;;;;55.55;24.67;;;;;;;4.52;100.00;100936.41;1824969;78;21514;-91
2022/11/05 19:11:23;;;;;;;55.00;26.07;;;;;;;4.55;100.00;100934.23;1826620;76;21033;-90
2022/11/05 19:13:50;;;;;;;58.48;28.75;;;;;;;4.57;100.00;100939.02;1824976;78;21052;-90
2022/11/05 19:16:21;;;;;;;52.58;25.52;;;;;;;4.59;100.00;100939.90;1796502;78;20982;-90
2022/11/05 19:18:48;;;;;;;243.37;134.22;;;;;;;4.67;100.00;100948.61;1825855;77;21233;-91
2022/11/05 19:21:22;;;;;;;79.80;41.75;;;;;;;4.67;100.00;100948.61;1825204;78;21043;-91
2022/11/05 19:23:50;;;;;;;61.05;27.50;;;;;;;4.76;100.00;100955.14;1825481;78;20962;-90
2022/11/05 19:26:20;;;;;;;63.30;31.65;;;;;;;4.59;100.00;100957.72;1826186;78;21025;-89
2022/11/05 19:28:47;;;;;;;59.08;25.15;;;;;;;4.66;100.00;100959.90;1827026;78;20962;-91
2022/11/05 19:31:18;;;;;;;57.58;27.42;;;;;;;4.68;100.00;100966.44;1827724;76;21145;-91
2022/11/05 19:33:47;;;;;;;54.80;25.27;;;;;;;4.78;100.00;100965.11;1828210;76;21000;-90
2022/11/05 19:36:19;;;;;;;55.70;27.93;;;;;;;4.70;100.00;100961.65;1827681;76;20971;-91
2022/11/05 19:38:51;;;;;;;56.25;26.82;;;;;;;4.73;100.00;100961.64;1827887;76;20985;-91
2022/11/05 19:41:21;;;;;;;55.92;26.50;;;;;;;4.72;100.00;100964.27;1825556;76;20970;-91
2022/11/05 19:43:53;;;;;;;60.60;23.25;;;;;;;4.77;100.00;100971.21;1826505;78;21111;-90
2022/11/05 19:46:25;;;;;;;;;;;;;;;4.75;100.00;100971.64;1828456;78;21272;-91
2022/11/05 19:48:54;;;;;;;57.30;26.12;;;;;;;4.75;100.00;100974.25;1825036;78;20133;-92
2022/11/05 19:51:24;;;;;;;58.08;25.45;;;;;;;4.72;100.00;100978.18;1825320;78;21021;-90
2022/11/05 19:53:54;;;;;;;61.37;25.25;;;;;;;4.74;100.00;100971.23;1794970;78;21883;-91
2022/11/05 19:56:32;;;;;;;59.10;25.70;;;;;;;4.76;100.00;100976.02;1826225;76;21847;-91
2022/11/05 19:59:01;;;;;;;61.15;27.05;;;;;;;4.73;100.00;100964.25;1827014;76;21300;-90
2022/11/05 20:01:30;;;;;;;59.55;26.10;;;;;;;4.80;100.00;100959.91;1825385;76;21072;-92
2022/11/05 20:04:07;;;;;;;54.55;23.87;;;;;;;4.68;100.00;100959.47;1826887;76;21069;-91
2022/11/05 20:06:38;;;;;;;63.52;26.35;;;;;;;4.62;100.00;100952.52;1822531;76;20986;-91
2022/11/05 20:09:10;;;;;;;61.30;26.12;;;;;;;4.67;100.00;100955.14;1828265;76;20780;-93
2022/11/05 20:11:38;;;;;;;72.72;28.75;;;;;;;4.66;100.00;100945.55;1827012;76;20860;-90
2022/11/05 20:14:07;;;;;;;77.97;27.82;;;;;;;4.54;100.00;100950.77;1827290;76;20943;-92
2022/11/05 20:16:37;;;;;;;66.95;27.73;;;;;;;4.52;100.00;100947.29;1825790;76;20977;-90
2022/11/05 20:19:07;;;;;;;62.13;25.88;;;;;;;4.63;100.00;100944.25;1823986;78;20989;-91
2022/11/05 20:21:34;;;;;;;71.42;28.35;;;;;;;4.66;100.00;100959.90;1824855;78;21005;-92
2022/11/05 20:24:04;;;;;;;63.42;27.25;;;;;;;4.65;100.00;100964.70;1823582;76;21045;-92
2022/11/05 20:26:32;;;;;;;71.17;28.23;;;;;;;4.60;100.00;100971.22;1824473;76;21024;-91
2022/11/05 20:28:59;;;;;;;69.90;28.35;;;;;;;4.53;100.00;100970.78;1824182;78;21597;-91
2022/11/05 20:31:26;;;;;;;75.03;29.85;;;;;;;4.59;100.00;100969.90;1794922;78;20958;-91
2022/11/05 20:33:57;;;;;;;81.87;31.73;;;;;;;4.56;100.00;100989.47;1794888;78;21201;-92
2022/11/05 20:36:28;;;;;;;67.42;29.40;;;;;;;4.63;100.00;100983.39;1824332;77;21029;-90
2022/11/05 20:38:57;;;;;;;68.97;30.20;;;;;;;4.65;100.00;100989.89;1824596;78;20962;-92
2022/11/05 20:41:26;;;;;;;73.90;30.68;;;;;;;4.64;100.00;100979.90;1824406;78;20997;-91
2022/11/05 20:43:53;;;;;;;75.08;31.73;;;;;;;4.64;100.00;100973.38;1824101;78;21060;-92
2022/11/05 20:46:20;;;;;;;71.57;30.90;;;;;;;4.68;100.00;100976.43;1825130;78;21153;-91
2022/11/05 20:48:47;;;;;;;61.08;26.23;;;;;;;4.68;100.00;100979.48;1824244;78;21357;-91
2022/11/05 20:51:19;;;;;;;79.15;32.80;;;;;;;4.66;100.00;100981.22;1824259;78;21041;-90
2022/11/05 20:53:46;;;;;;;69.47;30.55;;;;;;;4.72;100.00;100981.23;1825696;77;21072;-90
2022/11/05 20:56:24;;;;;;;78.07;33.15;;;;;;;4.72;100.00;100980.79;1825220;78;21006;-89
2022/11/05 20:58:56;;;;;;;70.67;29.98;;;;;;;4.77;100.00;100973.83;1826034;76;22354;-92
2022/11/05 21:01:28;;;;;;;83.87;36.60;;;;;;;4.71;100.00;100980.34;1795693;78;21045;-92
2022/11/05 21:03:56;;;;;;;75.95;32.88;;;;;;;4.73;100.00;100992.95;1823632;78;20986;-91
2022/11/05 21:06:25;;;;;;;81.15;33.25;;;;;;;4.67;100.00;100992.97;1795019;78;21502;-92
2022/11/05 21:08:53;;;;;;;78.92;31.48;;;;;;;4.72;100.00;100991.23;1824171;78;21637;-91
2022/11/05 21:11:22;;;;;;;79.45;31.60;;;;;;;4.76;100.00;100986.45;1824231;78;21006;-90
2022/11/05 21:13:49;;;;;;;80.60;31.97;;;;;;;4.78;100.00;100996.42;1824139;78;20919;-92
2022/11/05 21:16:17;;;;;;;80.15;32.23;;;;;;;4.82;100.00;101000.78;1825274;78;21182;-91
2022/11/05 21:18:46;;;;;;;79.20;33.13;;;;;;;4.80;100.00;101005.12;1821399;76;80136;-69
2022/11/05 21:21:18;;;;;;;83.10;35.52;;;;;;;4.84;100.00;101006.87;1774855;80;21057;-67
2022/11/05 21:23:45;;;;;;;83.87;36.03;;;;;;;4.76;100.00;101006.02;1774775;80;21123;-66
2022/11/05 21:26:13;;;;;;;70.12;27.02;;;;;;;4.76;100.00;101000.80;1775165;80;21037;-67
2022/11/05 21:28:40;;;;;;;78.90;34.73;;;;;;;4.70;100.00;101019.05;1774828;80;21002;-67
2022/11/05 21:31:06;;;;;;;83.55;33.85;;;;;;;4.73;100.00;101012.52;1775061;80;20990;-67
2022/11/05 21:33:33;;;;;;;78.07;29.63;;;;;;;4.75;100.00;101012.09;1774966;80;21025;-66